Terminal Aerodrome Forecast
Issued by NWS

Home | Current Version | Previous Version | Text Only | Print | Product List | Glossary On
Versions: 1 2 3 4 5 6 7 8 9 10 11 12 13 14
000
FTUS43 KMQT 300520
TAFIWD
TAF
KIWD 300520Z 3006/3106 25010KT P6SM SCT080 WS010/28035KT
     FM301300 28014G21KT P6SM SKC
     FM301900 28015G22KT P6SM SCT060 BKN070
     FM310100 26007KT P6SM BKN060
      AMD LTD TO CLD VIS AND WIND=

USA.gov is the U.S. government's official web portal to all federal, state and local government web resources and services.